sensor_id;sensor_type;location;lat;lon;timestamp;temperature;humidity
20463;DHT22;10390;53.566;9.980;2023-01-04T00:02:05;23.60;1.00
20463;DHT22;10390;53.566;9.980;2023-01-04T00:04:31;23.60;1.00
20463;DHT22;10390;53.566;9.980;2023-01-04T00:06:57;23.50;1.00
20463;DHT22;10390;53.566;9.980;2023-01-04T00:09:22;23.50;1.00
20463;DHT22;10390;53.566;9.980;2023-01-04T00:11:48;23.40;1.00
20463;DHT22;10390;53.566;9.980;2023-01-04T00:14:14;23.40;1.00
20463;DHT22;10390;53.566;9.980;2023-01-04T00:16:41;23.30;1.00
20463;DHT22;10390;53.566;9.980;2023-01-04T00:19:08;23.30;1.00
20463;DHT22;10390;53.566;9.980;2023-01-04T00:21:34;23.30;1.00
20463;DHT22;10390;53.566;9.980;2023-01-04T00:24:00;23.30;1.00
20463;DHT22;10390;53.566;9.980;2023-01-04T00:26:31;23.30;1.00
20463;DHT22;10390;53.566;9.980;2023-01-04T00:29:03;23.30;1.00
20463;DHT22;10390;53.566;9.980;2023-01-04T00:31:29;23.30;1.00
20463;DHT22;10390;53.566;9.980;2023-01-04T00:33:56;23.30;1.00
20463;DHT22;10390;53.566;9.980;2023-01-04T00:36:23;23.30;1.00
20463;DHT22;10390;53.566;9.980;2023-01-04T00:38:49;23.30;1.00
20463;DHT22;10390;53.566;9.980;2023-01-04T00:41:37;23.30;1.00
20463;DHT22;10390;53.566;9.980;2023-01-04T00:44:05;23.30;1.00
20463;DHT22;10390;53.566;9.980;2023-01-04T00:46:31;23.40;1.00
20463;DHT22;10390;53.566;9.980;2023-01-04T00:48:57;23.40;1.00
20463;DHT22;10390;53.566;9.980;2023-01-04T00:51:23;23.40;1.00
20463;DHT22;10390;53.566;9.980;2023-01-04T00:53:49;23.40;1.00
20463;DHT22;10390;53.566;9.980;2023-01-04T00:56:14;23.50;1.00
20463;DHT22;10390;53.566;9.980;2023-01-04T00:58:40;23.50;1.00
20463;DHT22;10390;53.566;9.980;2023-01-04T01:01:06;23.50;1.00
20463;DHT22;10390;53.566;9.980;2023-01-04T01:03:32;23.50;1.00
20463;DHT22;10390;53.566;9.980;2023-01-04T01:06:05;23.60;1.00
20463;DHT22;10390;53.566;9.980;2023-01-04T01:08:32;23.50;1.00
20463;DHT22;10390;53.566;9.980;2023-01-04T01:11:04;23.50;1.00
20463;DHT22;10390;53.566;9.980;2023-01-04T01:13:30;23.50;1.00
20463;DHT22;10390;53.566;9.980;2023-01-04T01:15:55;23.50;1.00
20463;DHT22;10390;53.566;9.980;2023-01-04T01:18:21;23.40;1.00
20463;DHT22;10390;53.566;9.980;2023-01-04T01:20:46;23.40;1.00
20463;DHT22;10390;53.566;9.980;2023-01-04T01:23:13;23.30;1.00
20463;DHT22;10390;53.566;9.980;2023-01-04T01:25:40;23.30;1.00
20463;DHT22;10390;53.566;9.980;2023-01-04T01:28:06;23.30;1.00
20463;DHT22;10390;53.566;9.980;2023-01-04T01:30:33;23.30;1.00
20463;DHT22;10390;53.566;9.980;2023-01-04T01:32:59;23.30;1.00
20463;DHT22;10390;53.566;9.980;2023-01-04T01:35:25;23.30;1.00
20463;DHT22;10390;53.566;9.980;2023-01-04T01:37:50;23.20;1.00
20463;DHT22;10390;53.566;9.980;2023-01-04T01:40:16;23.20;1.00
20463;DHT22;10390;53.566;9.980;2023-01-04T01:42:42;23.20;1.00
20463;DHT22;10390;53.566;9.980;2023-01-04T01:45:31;23.20;1.00
20463;DHT22;10390;53.566;9.980;2023-01-04T01:48:10;23.20;1.00
20463;DHT22;10390;53.566;9.980;2023-01-04T01:50:40;23.20;1.00
20463;DHT22;10390;53.566;9.980;2023-01-04T01:53:09;23.20;1.00
20463;DHT22;10390;53.566;9.980;2023-01-04T01:55:36;23.20;1.00
20463;DHT22;10390;53.566;9.980;2023-01-04T01:58:06;23.20;1.00
20463;DHT22;10390;53.566;9.980;2023-01-04T02:00:34;23.30;1.00
20463;DHT22;10390;53.566;9.980;2023-01-04T02:05:38;23.40;1.00
20463;DHT22;10390;53.566;9.980;2023-01-04T02:08:05;23.40;1.00
20463;DHT22;10390;53.566;9.980;2023-01-04T02:10:32;23.40;1.00
20463;DHT22;10390;53.566;9.980;2023-01-04T02:13:01;23.40;1.00
20463;DHT22;10390;53.566;9.980;2023-01-04T02:15:42;23.40;1.00
20463;DHT22;10390;53.566;9.980;2023-01-04T02:18:16;23.40;1.00
20463;DHT22;10390;53.566;9.980;2023-01-04T02:21:07;23.40;1.00
20463;DHT22;10390;53.566;9.980;2023-01-04T02:23:53;23.50;1.00
20463;DHT22;10390;53.566;9.980;2023-01-04T02:33:03;23.30;1.00
20463;DHT22;10390;53.566;9.980;2023-01-04T02:35:27;23.30;1.00
20463;DHT22;10390;53.566;9.980;2023-01-04T02:43:37;23.20;1.00
20463;DHT22;10390;53.566;9.980;2023-01-04T02:46:30;23.10;1.00
20463;DHT22;10390;53.566;9.980;2023-01-04T02:48:59;23.10;1.00
20463;DHT22;10390;53.566;9.980;2023-01-04T02:51:44;23.10;1.00
20463;DHT22;10390;53.566;9.980;2023-01-04T02:54:14;23.10;1.00
20463;DHT22;10390;53.566;9.980;2023-01-04T02:59:20;23.10;1.00
20463;DHT22;10390;53.566;9.980;2023-01-04T03:02:14;23.10;1.00
20463;DHT22;10390;53.566;9.980;2023-01-04T03:05:05;23.10;1.00
20463;DHT22;10390;53.566;9.980;2023-01-04T03:08:27;23.10;1.00
20463;DHT22;10390;53.566;9.980;2023-01-04T03:11:03;23.20;1.00
20463;DHT22;10390;53.566;9.980;2023-01-04T03:13:39;23.20;1.00
20463;DHT22;10390;53.566;9.980;2023-01-04T03:16:17;23.20;1.00
20463;DHT22;10390;53.566;9.980;2023-01-04T03:18:47;23.20;1.00
20463;DHT22;10390;53.566;9.980;2023-01-04T03:21:16;23.20;1.00
20463;DHT22;10390;53.566;9.980;2023-01-04T03:23:44;23.30;1.00
20463;DHT22;10390;53.566;9.980;2023-01-04T03:26:33;23.30;1.00
20463;DHT22;10390;53.566;9.980;2023-01-04T03:29:38;23.30;1.00
20463;DHT22;10390;53.566;9.980;2023-01-04T03:32:35;23.30;1.00
20463;DHT22;10390;53.566;9.980;2023-01-04T03:35:28;23.30;1.00
20463;DHT22;10390;53.566;9.980;2023-01-04T03:38:18;23.30;1.00
20463;DHT22;10390;53.566;9.980;2023-01-04T03:41:22;23.20;1.00
20463;DHT22;10390;53.566;9.980;2023-01-04T03:47:09;23.20;1.00
20463;DHT22;10390;53.566;9.980;2023-01-04T03:49:59;23.20;1.00
20463;DHT22;10390;53.566;9.980;2023-01-04T03:52:28;23.10;1.00
20463;DHT22;10390;53.566;9.980;2023-01-04T03:54:55;23.10;1.00
20463;DHT22;10390;53.566;9.980;2023-01-04T03:57:23;23.10;1.00
20463;DHT22;10390;53.566;9.980;2023-01-04T03:59:52;23.00;1.00
20463;DHT22;10390;53.566;9.980;2023-01-04T04:02:29;23.00;1.00
20463;DHT22;10390;53.566;9.980;2023-01-04T04:04:55;23.00;1.00
20463;DHT22;10390;53.566;9.980;2023-01-04T04:07:39;23.10;1.00
20463;DHT22;10390;53.566;9.980;2023-01-04T04:10:23;23.00;1.00
20463;DHT22;10390;53.566;9.980;2023-01-04T04:12:49;23.00;1.00
20463;DHT22;10390;53.566;9.980;2023-01-04T04:15:16;23.00;1.00
20463;DHT22;10390;53.566;9.980;2023-01-04T04:17:42;23.00;1.00
20463;DHT22;10390;53.566;9.980;2023-01-04T04:20:09;23.00;1.00
20463;DHT22;10390;53.566;9.980;2023-01-04T04:22:35;23.10;1.00
20463;DHT22;10390;53.566;9.980;2023-01-04T04:25:01;23.00;1.00
20463;DHT22;10390;53.566;9.980;2023-01-04T04:27:26;23.00;1.00
20463;DHT22;10390;53.566;9.980;2023-01-04T04:29:52;23.10;1.00
20463;DHT22;10390;53.566;9.980;2023-01-04T04:32:17;23.10;1.00
20463;DHT22;10390;53.566;9.980;2023-01-04T04:34:43;23.10;1.00
20463;DHT22;10390;53.566;9.980;2023-01-04T04:37:08;23.10;1.00
20463;DHT22;10390;53.566;9.980;2023-01-04T04:39:34;23.10;1.00
20463;DHT22;10390;53.566;9.980;2023-01-04T04:41:59;23.10;1.00
20463;DHT22;10390;53.566;9.980;2023-01-04T04:44:25;23.10;1.00
20463;DHT22;10390;53.566;9.980;2023-01-04T04:46:51;23.10;1.00
20463;DHT22;10390;53.566;9.980;2023-01-04T04:49:17;23.10;1.00
20463;DHT22;10390;53.566;9.980;2023-01-04T04:51:43;23.10;1.00
20463;DHT22;10390;53.566;9.980;2023-01-04T04:54:10;23.10;1.00
20463;DHT22;10390;53.566;9.980;2023-01-04T04:56:38;23.10;1.00
20463;DHT22;10390;53.566;9.980;2023-01-04T04:59:05;23.00;1.00
20463;DHT22;10390;53.566;9.980;2023-01-04T05:01:30;23.10;1.00
20463;DHT22;10390;53.566;9.980;2023-01-04T05:03:56;23.00;1.00
20463;DHT22;10390;53.566;9.980;2023-01-04T05:06:22;23.10;1.00
20463;DHT22;10390;53.566;9.980;2023-01-04T05:08:48;23.10;1.00
20463;DHT22;10390;53.566;9.980;2023-01-04T05:11:14;23.00;1.00
20463;DHT22;10390;53.566;9.980;2023-01-04T05:13:40;23.00;1.00
20463;DHT22;10390;53.566;9.980;2023-01-04T05:16:07;23.00;1.00
20463;DHT22;10390;53.566;9.980;2023-01-04T05:18:33;23.00;1.00
20463;DHT22;10390;53.566;9.980;2023-01-04T05:20:59;23.00;1.00
20463;DHT22;10390;53.566;9.980;2023-01-04T05:23:25;23.00;1.00
20463;DHT22;10390;53.566;9.980;2023-01-04T05:25:57;23.00;1.00
20463;DHT22;10390;53.566;9.980;2023-01-04T05:28:23;23.00;1.00
20463;DHT22;10390;53.566;9.980;2023-01-04T05:30:50;23.00;1.00
20463;DHT22;10390;53.566;9.980;2023-01-04T05:35:49;23.00;1.00
20463;DHT22;10390;53.566;9.980;2023-01-04T05:38:15;23.00;1.00
20463;DHT22;10390;53.566;9.980;2023-01-04T05:40:41;23.00;1.00
20463;DHT22;10390;53.566;9.980;2023-01-04T05:43:07;22.90;1.00
20463;DHT22;10390;53.566;9.980;2023-01-04T05:45:33;22.90;1.00
20463;DHT22;10390;53.566;9.980;2023-01-04T05:47:59;22.90;1.00
20463;DHT22;10390;53.566;9.980;2023-01-04T05:50:24;23.00;1.00
20463;DHT22;10390;53.566;9.980;2023-01-04T05:52:50;22.90;1.00
20463;DHT22;10390;53.566;9.980;2023-01-04T05:55:16;23.00;1.00
20463;DHT22;10390;53.566;9.980;2023-01-04T05:57:42;23.00;1.00
20463;DHT22;10390;53.566;9.980;2023-01-04T06:00:09;22.90;1.00
20463;DHT22;10390;53.566;9.980;2023-01-04T06:02:35;23.00;1.00
20463;DHT22;10390;53.566;9.980;2023-01-04T06:05:00;22.90;1.00
20463;DHT22;10390;53.566;9.980;2023-01-04T06:07:27;22.90;1.00
20463;DHT22;10390;53.566;9.980;2023-01-04T06:09:53;22.90;1.00
20463;DHT22;10390;53.566;9.980;2023-01-04T06:12:19;22.90;1.00
20463;DHT22;10390;53.566;9.980;2023-01-04T06:14:45;23.00;1.00
20463;DHT22;10390;53.566;9.980;2023-01-04T06:17:11;22.90;1.00
20463;DHT22;10390;53.566;9.980;2023-01-04T06:19:36;22.90;1.00
20463;DHT22;10390;53.566;9.980;2023-01-04T06:22:02;22.90;1.00
20463;DHT22;10390;53.566;9.980;2023-01-04T06:24:28;22.90;1.00
20463;DHT22;10390;53.566;9.980;2023-01-04T06:26:54;22.90;1.00
20463;DHT22;10390;53.566;9.980;2023-01-04T06:29:19;22.90;1.00
20463;DHT22;10390;53.566;9.980;2023-01-04T06:31:45;22.90;1.00
20463;DHT22;10390;53.566;9.980;2023-01-04T06:34:12;22.90;1.00
20463;DHT22;10390;53.566;9.980;2023-01-04T06:36:38;22.90;1.00
20463;DHT22;10390;53.566;9.980;2023-01-04T06:39:04;22.90;1.00
20463;DHT22;10390;53.566;9.980;2023-01-04T06:41:29;22.90;1.00
20463;DHT22;10390;53.566;9.980;2023-01-04T06:43:55;22.90;1.00
20463;DHT22;10390;53.566;9.980;2023-01-04T06:46:21;22.90;1.00
20463;DHT22;10390;53.566;9.980;2023-01-04T06:48:47;22.90;1.00
20463;DHT22;10390;53.566;9.980;2023-01-04T06:51:12;23.00;1.00
20463;DHT22;10390;53.566;9.980;2023-01-04T06:53:38;23.00;1.00
20463;DHT22;10390;53.566;9.980;2023-01-04T06:56:04;23.00;1.00
20463;DHT22;10390;53.566;9.980;2023-01-04T06:58:30;22.90;1.00
20463;DHT22;10390;53.566;9.980;2023-01-04T07:00:55;22.90;1.00
20463;DHT22;10390;53.566;9.980;2023-01-04T07:03:21;22.90;1.00
20463;DHT22;10390;53.566;9.980;2023-01-04T07:05:47;22.90;1.00
20463;DHT22;10390;53.566;9.980;2023-01-04T07:08:13;22.90;1.00
20463;DHT22;10390;53.566;9.980;2023-01-04T07:10:39;22.90;1.00
20463;DHT22;10390;53.566;9.980;2023-01-04T07:13:06;22.90;1.00
20463;DHT22;10390;53.566;9.980;2023-01-04T07:15:32;22.90;1.00
20463;DHT22;10390;53.566;9.980;2023-01-04T07:17:58;22.90;1.00
20463;DHT22;10390;53.566;9.980;2023-01-04T07:20:23;22.90;1.00
20463;DHT22;10390;53.566;9.980;2023-01-04T07:22:49;22.90;1.00
20463;DHT22;10390;53.566;9.980;2023-01-04T07:25:15;23.00;1.00
20463;DHT22;10390;53.566;9.980;2023-01-04T07:27:41;23.00;1.00
20463;DHT22;10390;53.566;9.980;2023-01-04T07:30:07;23.00;1.00
20463;DHT22;10390;53.566;9.980;2023-01-04T07:32:33;23.00;1.00
20463;DHT22;10390;53.566;9.980;2023-01-04T07:34:58;23.10;1.00
20463;DHT22;10390;53.566;9.980;2023-01-04T07:37:24;23.00;1.00
20463;DHT22;10390;53.566;9.980;2023-01-04T07:39:50;23.10;1.00
20463;DHT22;10390;53.566;9.980;2023-01-04T07:42:15;23.10;1.00
20463;DHT22;10390;53.566;9.980;2023-01-04T07:44:42;23.10;1.00
20463;DHT22;10390;53.566;9.980;2023-01-04T07:47:09;23.10;1.00
20463;DHT22;10390;53.566;9.980;2023-01-04T07:49:34;23.20;1.00
20463;DHT22;10390;53.566;9.980;2023-01-04T07:52:00;23.20;1.00
20463;DHT22;10390;53.566;9.980;2023-01-04T07:54:27;23.30;1.00
20463;DHT22;10390;53.566;9.980;2023-01-04T07:56:52;23.30;1.00
20463;DHT22;10390;53.566;9.980;2023-01-04T07:59:19;23.40;1.00
20463;DHT22;10390;53.566;9.980;2023-01-04T08:01:45;23.40;1.00
20463;DHT22;10390;53.566;9.980;2023-01-04T08:04:12;23.40;1.00
20463;DHT22;10390;53.566;9.980;2023-01-04T08:06:38;23.40;1.00
20463;DHT22;10390;53.566;9.980;2023-01-04T08:09:05;23.40;1.00
20463;DHT22;10390;53.566;9.980;2023-01-04T08:11:32;23.40;1.00
20463;DHT22;10390;53.566;9.980;2023-01-04T08:13:58;23.40;1.00
20463;DHT22;10390;53.566;9.980;2023-01-04T08:16:26;23.40;1.00
20463;DHT22;10390;53.566;9.980;2023-01-04T08:18:57;23.50;1.00
20463;DHT22;10390;53.566;9.980;2023-01-04T08:21:24;23.40;1.00
20463;DHT22;10390;53.566;9.980;2023-01-04T08:23:50;23.40;1.00
20463;DHT22;10390;53.566;9.980;2023-01-04T08:26:17;23.40;1.00
20463;DHT22;10390;53.566;9.980;2023-01-04T08:28:43;23.40;1.00
20463;DHT22;10390;53.566;9.980;2023-01-04T08:31:18;23.40;1.00
20463;DHT22;10390;53.566;9.980;2023-01-04T08:33:44;23.40;1.00
20463;DHT22;10390;53.566;9.980;2023-01-04T08:36:33;23.40;1.00
20463;DHT22;10390;53.566;9.980;2023-01-04T08:39:00;23.40;1.00
20463;DHT22;10390;53.566;9.980;2023-01-04T08:41:26;23.50;1.00
20463;DHT22;10390;53.566;9.980;2023-01-04T08:43:52;23.50;1.00
20463;DHT22;10390;53.566;9.980;2023-01-04T08:46:19;23.60;1.00
20463;DHT22;10390;53.566;9.980;2023-01-04T08:48:44;23.60;1.00
20463;DHT22;10390;53.566;9.980;2023-01-04T08:51:13;23.60;1.00
20463;DHT22;10390;53.566;9.980;2023-01-04T08:53:39;23.70;1.00
20463;DHT22;10390;53.566;9.980;2023-01-04T08:56:05;23.70;1.00
20463;DHT22;10390;53.566;9.980;2023-01-04T08:58:32;23.70;1.00
20463;DHT22;10390;53.566;9.980;2023-01-04T09:01:00;23.70;1.00
20463;DHT22;10390;53.566;9.980;2023-01-04T09:03:27;23.80;1.00
20463;DHT22;10390;53.566;9.980;2023-01-04T09:05:52;23.80;1.00
20463;DHT22;10390;53.566;9.980;2023-01-04T09:08:18;23.80;1.00
20463;DHT22;10390;53.566;9.980;2023-01-04T09:10:44;23.80;1.00
20463;DHT22;10390;53.566;9.980;2023-01-04T09:13:09;23.80;1.00
20463;DHT22;10390;53.566;9.980;2023-01-04T09:15:35;23.80;1.00
20463;DHT22;10390;53.566;9.980;2023-01-04T09:18:01;23.80;1.00
20463;DHT22;10390;53.566;9.980;2023-01-04T09:20:28;23.80;1.00
20463;DHT22;10390;53.566;9.980;2023-01-04T09:22:56;23.80;1.00
20463;DHT22;10390;53.566;9.980;2023-01-04T09:25:22;23.90;1.00
20463;DHT22;10390;53.566;9.980;2023-01-04T09:27:47;23.90;1.00
20463;DHT22;10390;53.566;9.980;2023-01-04T09:30:13;24.00;1.00
20463;DHT22;10390;53.566;9.980;2023-01-04T09:32:38;24.00;1.00
20463;DHT22;10390;53.566;9.980;2023-01-04T09:35:04;24.00;1.00
20463;DHT22;10390;53.566;9.980;2023-01-04T09:37:30;24.00;1.00
20463;DHT22;10390;53.566;9.980;2023-01-04T09:39:56;24.00;1.00
20463;DHT22;10390;53.566;9.980;2023-01-04T09:42:41;24.00;1.00
20463;DHT22;10390;53.566;9.980;2023-01-04T09:45:20;24.00;1.00
20463;DHT22;10390;53.566;9.980;2023-01-04T09:50:35;23.90;1.00
20463;DHT22;10390;53.566;9.980;2023-01-04T09:53:19;23.80;1.00
20463;DHT22;10390;53.566;9.980;2023-01-04T09:55:49;23.80;1.00
20463;DHT22;10390;53.566;9.980;2023-01-04T09:58:37;23.80;1.00
20463;DHT22;10390;53.566;9.980;2023-01-04T10:03:37;23.80;1.00
20463;DHT22;10390;53.566;9.980;2023-01-04T10:06:09;23.70;1.00
20463;DHT22;10390;53.566;9.980;2023-01-04T10:08:36;23.70;1.00
20463;DHT22;10390;53.566;9.980;2023-01-04T10:11:14;23.70;1.00
20463;DHT22;10390;53.566;9.980;2023-01-04T10:14:12;23.70;1.00
20463;DHT22;10390;53.566;9.980;2023-01-04T10:16:55;23.70;1.00
20463;DHT22;10390;53.566;9.980;2023-01-04T10:22:17;23.70;1.00
20463;DHT22;10390;53.566;9.980;2023-01-04T10:24:57;23.70;1.00
20463;DHT22;10390;53.566;9.980;2023-01-04T10:30:34;23.70;1.00
20463;DHT22;10390;53.566;9.980;2023-01-04T10:33:14;23.70;1.00
20463;DHT22;10390;53.566;9.980;2023-01-04T10:35:44;23.70;1.00
20463;DHT22;10390;53.566;9.980;2023-01-04T10:38:22;23.70;1.00
20463;DHT22;10390;53.566;9.980;2023-01-04T10:40:49;23.70;1.00
20463;DHT22;10390;53.566;9.980;2023-01-04T10:46:26;23.70;1.00
20463;DHT22;10390;53.566;9.980;2023-01-04T10:49:03;23.70;1.00
20463;DHT22;10390;53.566;9.980;2023-01-04T10:51:40;23.70;1.00
20463;DHT22;10390;53.566;9.980;2023-01-04T10:54:41;23.70;1.00
20463;DHT22;10390;53.566;9.980;2023-01-04T10:59:46;23.80;1.00
20463;DHT22;10390;53.566;9.980;2023-01-04T11:05:02;23.90;1.00
20463;DHT22;10390;53.566;9.980;2023-01-04T11:07:39;23.90;1.00
20463;DHT22;10390;53.566;9.980;2023-01-04T11:10:09;23.90;1.00
20463;DHT22;10390;53.566;9.980;2023-01-04T11:12:37;23.90;1.00
20463;DHT22;10390;53.566;9.980;2023-01-04T11:15:03;23.90;1.00
20463;DHT22;10390;53.566;9.980;2023-01-04T11:17:29;23.80;1.00
20463;DHT22;10390;53.566;9.980;2023-01-04T11:19:56;23.90;1.00
20463;DHT22;10390;53.566;9.980;2023-01-04T11:22:35;23.90;1.00
20463;DHT22;10390;53.566;9.980;2023-01-04T11:25:12;23.80;1.00
20463;DHT22;10390;53.566;9.980;2023-01-04T11:27:46;23.80;1.00
20463;DHT22;10390;53.566;9.980;2023-01-04T11:30:22;23.80;1.00
20463;DHT22;10390;53.566;9.980;2023-01-04T11:33:00;23.80;1.00
20463;DHT22;10390;53.566;9.980;2023-01-04T11:38:19;23.80;1.00
20463;DHT22;10390;53.566;9.980;2023-01-04T11:43:22;23.90;1.00
20463;DHT22;10390;53.566;9.980;2023-01-04T11:46:21;23.90;1.00
20463;DHT22;10390;53.566;9.980;2023-01-04T11:48:48;23.90;1.00
20463;DHT22;10390;53.566;9.980;2023-01-04T11:53:45;24.00;1.00
20463;DHT22;10390;53.566;9.980;2023-01-04T11:56:20;24.00;1.00
20463;DHT22;10390;53.566;9.980;2023-01-04T11:59:12;24.00;1.00
20463;DHT22;10390;53.566;9.980;2023-01-04T12:01:44;24.00;1.00
20463;DHT22;10390;53.566;9.980;2023-01-04T12:04:24;24.00;1.00
20463;DHT22;10390;53.566;9.980;2023-01-04T12:06:57;24.00;1.00
20463;DHT22;10390;53.566;9.980;2023-01-04T12:09:24;24.00;1.00
20463;DHT22;10390;53.566;9.980;2023-01-04T12:11:54;24.00;1.00
20463;DHT22;10390;53.566;9.980;2023-01-04T12:14:28;23.90;1.00
20463;DHT22;10390;53.566;9.980;2023-01-04T12:19:34;23.90;1.00
20463;DHT22;10390;53.566;9.980;2023-01-04T12:22:02;23.90;1.00
20463;DHT22;10390;53.566;9.980;2023-01-04T12:24:32;23.90;1.00
20463;DHT22;10390;53.566;9.980;2023-01-04T12:27:00;23.90;1.00
20463;DHT22;10390;53.566;9.980;2023-01-04T12:29:56;23.90;1.00
20463;DHT22;10390;53.566;9.980;2023-01-04T12:34:52;23.90;1.00
20463;DHT22;10390;53.566;9.980;2023-01-04T12:40:50;24.00;1.00
20463;DHT22;10390;53.566;9.980;2023-01-04T12:45:43;24.00;1.00
20463;DHT22;10390;53.566;9.980;2023-01-04T12:51:23;24.00;1.00
20463;DHT22;10390;53.566;9.980;2023-01-04T12:54:01;24.00;1.00
20463;DHT22;10390;53.566;9.980;2023-01-04T12:59:36;24.00;1.00
20463;DHT22;10390;53.566;9.980;2023-01-04T13:02:26;24.00;1.00
20463;DHT22;10390;53.566;9.980;2023-01-04T13:05:03;24.00;1.00
20463;DHT22;10390;53.566;9.980;2023-01-04T13:07:45;24.00;1.00
20463;DHT22;10390;53.566;9.980;2023-01-04T13:10:20;24.10;1.00
20463;DHT22;10390;53.566;9.980;2023-01-04T13:13:05;24.10;1.00
20463;DHT22;10390;53.566;9.980;2023-01-04T13:15:58;24.10;1.00
20463;DHT22;10390;53.566;9.980;2023-01-04T13:18:47;24.10;1.00
20463;DHT22;10390;53.566;9.980;2023-01-04T13:21:48;24.10;1.00
20463;DHT22;10390;53.566;9.980;2023-01-04T13:24:28;24.10;1.00
20463;DHT22;10390;53.566;9.980;2023-01-04T13:27:22;24.10;1.00
20463;DHT22;10390;53.566;9.980;2023-01-04T13:29:50;24.10;1.00
20463;DHT22;10390;53.566;9.980;2023-01-04T13:35:11;24.10;1.00
20463;DHT22;10390;53.566;9.980;2023-01-04T13:37:48;24.10;1.00
20463;DHT22;10390;53.566;9.980;2023-01-04T13:40:32;24.10;1.00
20463;DHT22;10390;53.566;9.980;2023-01-04T13:48:38;24.10;1.00
20463;DHT22;10390;53.566;9.980;2023-01-04T13:51:16;24.20;1.00
20463;DHT22;10390;53.566;9.980;2023-01-04T13:53:54;24.10;1.00
20463;DHT22;10390;53.566;9.980;2023-01-04T13:56:32;24.20;1.00
20463;DHT22;10390;53.566;9.980;2023-01-04T13:58:58;24.20;1.00
20463;DHT22;10390;53.566;9.980;2023-01-04T14:01:32;24.20;1.00
20463;DHT22;10390;53.566;9.980;2023-01-04T14:04:04;24.20;1.00
20463;DHT22;10390;53.566;9.980;2023-01-04T14:06:40;24.20;1.00
20463;DHT22;10390;53.566;9.980;2023-01-04T14:12:07;24.20;1.00
20463;DHT22;10390;53.566;9.980;2023-01-04T14:20:03;24.20;1.00
20463;DHT22;10390;53.566;9.980;2023-01-04T14:25:29;24.20;1.00
20463;DHT22;10390;53.566;9.980;2023-01-04T14:27:46;24.20;1.00
20463;DHT22;10390;53.566;9.980;2023-01-04T14:32:58;24.20;1.00
20463;DHT22;10390;53.566;9.980;2023-01-04T14:35:25;24.20;1.00
20463;DHT22;10390;53.566;9.980;2023-01-04T14:37:52;24.20;1.00
20463;DHT22;10390;53.566;9.980;2023-01-04T14:40:24;24.20;1.00
20463;DHT22;10390;53.566;9.980;2023-01-04T14:42:53;24.20;1.00
20463;DHT22;10390;53.566;9.980;2023-01-04T14:45:20;24.20;1.00
20463;DHT22;10390;53.566;9.980;2023-01-04T14:47:45;24.20;1.00
20463;DHT22;10390;53.566;9.980;2023-01-04T14:50:12;24.10;1.00
20463;DHT22;10390;53.566;9.980;2023-01-04T14:52:38;24.10;1.00
20463;DHT22;10390;53.566;9.980;2023-01-04T14:55:04;24.10;1.00
20463;DHT22;10390;53.566;9.980;2023-01-04T14:57:31;24.10;1.00
20463;DHT22;10390;53.566;9.980;2023-01-04T14:59:57;24.10;1.00
20463;DHT22;10390;53.566;9.980;2023-01-04T15:02:23;24.10;1.00
20463;DHT22;10390;53.566;9.980;2023-01-04T15:04:51;24.10;1.00
20463;DHT22;10390;53.566;9.980;2023-01-04T15:09:57;24.10;1.00
20463;DHT22;10390;53.566;9.980;2023-01-04T15:12:22;24.10;1.00
20463;DHT22;10390;53.566;9.980;2023-01-04T15:14:48;24.10;1.00
20463;DHT22;10390;53.566;9.980;2023-01-04T15:17:13;24.10;1.00
20463;DHT22;10390;53.566;9.980;2023-01-04T15:19:39;24.20;1.00
20463;DHT22;10390;53.566;9.980;2023-01-04T15:22:05;24.20;1.00
20463;DHT22;10390;53.566;9.980;2023-01-04T15:24:30;24.20;1.00
20463;DHT22;10390;53.566;9.980;2023-01-04T15:26:56;24.20;1.00
20463;DHT22;10390;53.566;9.980;2023-01-04T15:29:21;24.20;1.00
20463;DHT22;10390;53.566;9.980;2023-01-04T15:31:47;24.20;1.00
20463;DHT22;10390;53.566;9.980;2023-01-04T15:34:13;24.20;1.00
20463;DHT22;10390;53.566;9.980;2023-01-04T15:36:38;24.20;1.00
20463;DHT22;10390;53.566;9.980;2023-01-04T15:39:05;24.20;1.00
20463;DHT22;10390;53.566;9.980;2023-01-04T15:41:31;24.20;1.00
20463;DHT22;10390;53.566;9.980;2023-01-04T15:44:15;24.20;1.00
20463;DHT22;10390;53.566;9.980;2023-01-04T15:46:41;24.20;1.00
20463;DHT22;10390;53.566;9.980;2023-01-04T15:49:07;24.20;1.00
20463;DHT22;10390;53.566;9.980;2023-01-04T15:51:32;24.20;1.00
20463;DHT22;10390;53.566;9.980;2023-01-04T15:53:58;24.20;1.00
20463;DHT22;10390;53.566;9.980;2023-01-04T15:56:24;24.20;1.00
20463;DHT22;10390;53.566;9.980;2023-01-04T15:58:53;24.20;1.00
20463;DHT22;10390;53.566;9.980;2023-01-04T16:01:19;24.20;1.00
20463;DHT22;10390;53.566;9.980;2023-01-04T16:03:45;24.20;1.00
20463;DHT22;10390;53.566;9.980;2023-01-04T16:06:13;24.20;1.00
20463;DHT22;10390;53.566;9.980;2023-01-04T16:08:40;24.30;1.00
20463;DHT22;10390;53.566;9.980;2023-01-04T16:11:11;24.30;1.00
20463;DHT22;10390;53.566;9.980;2023-01-04T16:13:37;24.30;1.00
20463;DHT22;10390;53.566;9.980;2023-01-04T16:16:03;24.30;1.00
20463;DHT22;10390;53.566;9.980;2023-01-04T16:18:29;24.30;1.00
20463;DHT22;10390;53.566;9.980;2023-01-04T16:20:55;24.30;1.00
20463;DHT22;10390;53.566;9.980;2023-01-04T16:23:21;24.30;1.00
20463;DHT22;10390;53.566;9.980;2023-01-04T16:25:46;24.30;1.00
20463;DHT22;10390;53.566;9.980;2023-01-04T16:28:12;24.40;1.00
20463;DHT22;10390;53.566;9.980;2023-01-04T16:30:38;24.40;1.00
20463;DHT22;10390;53.566;9.980;2023-01-04T16:33:03;24.40;1.00
20463;DHT22;10390;53.566;9.980;2023-01-04T16:35:29;24.40;1.00
20463;DHT22;10390;53.566;9.980;2023-01-04T16:37:54;24.40;1.00
20463;DHT22;10390;53.566;9.980;2023-01-04T16:40:20;24.30;1.00
20463;DHT22;10390;53.566;9.980;2023-01-04T16:42:46;24.30;1.00
20463;DHT22;10390;53.566;9.980;2023-01-04T16:45:17;24.30;1.00
20463;DHT22;10390;53.566;9.980;2023-01-04T16:47:43;24.20;1.00
20463;DHT22;10390;53.566;9.980;2023-01-04T16:50:11;24.20;1.00
20463;DHT22;10390;53.566;9.980;2023-01-04T16:52:38;24.20;1.00
20463;DHT22;10390;53.566;9.980;2023-01-04T16:55:05;24.10;1.00
20463;DHT22;10390;53.566;9.980;2023-01-04T16:57:31;24.10;1.00
20463;DHT22;10390;53.566;9.980;2023-01-04T16:59:56;24.10;1.00
20463;DHT22;10390;53.566;9.980;2023-01-04T17:02:22;24.10;1.00
20463;DHT22;10390;53.566;9.980;2023-01-04T17:04:48;24.10;1.00
20463;DHT22;10390;53.566;9.980;2023-01-04T17:07:20;24.10;1.00
20463;DHT22;10390;53.566;9.980;2023-01-04T17:09:47;24.10;1.00
20463;DHT22;10390;53.566;9.980;2023-01-04T17:12:13;24.20;1.00
20463;DHT22;10390;53.566;9.980;2023-01-04T17:14:39;24.20;1.00
20463;DHT22;10390;53.566;9.980;2023-01-04T17:17:04;24.20;1.00
20463;DHT22;10390;53.566;9.980;2023-01-04T17:19:30;24.30;1.00
20463;DHT22;10390;53.566;9.980;2023-01-04T17:21:55;24.30;1.00
20463;DHT22;10390;53.566;9.980;2023-01-04T17:24:21;24.30;1.00
20463;DHT22;10390;53.566;9.980;2023-01-04T17:26:46;24.40;1.00
20463;DHT22;10390;53.566;9.980;2023-01-04T17:29:12;24.40;1.00
20463;DHT22;10390;53.566;9.980;2023-01-04T17:31:41;24.40;1.00
20463;DHT22;10390;53.566;9.980;2023-01-04T17:34:10;24.40;1.00
20463;DHT22;10390;53.566;9.980;2023-01-04T17:36:37;24.50;1.00